createdAt,value
2022-08-26T00:00:38.148Z,101504.16
2022-08-26T00:03:42.915Z,101502.41
2022-08-26T00:06:46.302Z,101497.06
2022-08-26T00:09:50.122Z,101495.25
2022-08-26T00:12:57.291Z,101498.91
2022-08-26T00:16:00.526Z,101490.03
2022-08-26T00:19:04.986Z,101489.09
2022-08-26T00:22:08.536Z,101491.88
2022-08-26T00:25:12.727Z,101483.84
2022-08-26T00:28:16.182Z,101487.44
2022-08-26T00:31:22.131Z,101494.63
2022-08-26T00:34:26.632Z,101494.63
2022-08-26T00:37:29.844Z,101494.63
2022-08-26T00:40:36.304Z,101483.91
2022-08-26T00:43:47.239Z,101480.38
2022-08-26T00:46:55.929Z,101482.19
2022-08-26T00:50:03.725Z,101484.88
2022-08-26T00:53:24.031Z,101481.31
2022-08-26T00:56:33.050Z,101481.41
2022-08-26T00:59:36.755Z,101473.34
2022-08-26T01:02:46.664Z,101473.44
2022-08-26T01:05:52.498Z,101470.84
2022-08-26T01:08:57.784Z,101478.88
2022-08-26T01:12:03.594Z,101474.38
2022-08-26T01:15:08.062Z,101478.88
2022-08-26T01:18:14.582Z,101479.75
2022-08-26T01:21:26.155Z,101475.25
2022-08-26T01:24:31.420Z,101473.50
2022-08-26T01:27:34.607Z,101478.88
2022-08-26T01:30:40.998Z,101471.81
2022-08-26T01:33:49.341Z,101471.81
2022-08-26T01:36:55.623Z,101460.19
2022-08-26T01:40:00.294Z,101470.94
2022-08-26T01:43:05.320Z,101466.50
2022-08-26T01:46:08.914Z,101466.59
2022-08-26T01:49:14.973Z,101471.97
2022-08-26T01:52:24.550Z,101462.19
2022-08-26T01:55:34.339Z,101465.72
2022-08-26T01:58:42.889Z,101471.09
2022-08-26T02:01:46.279Z,101464.00
2022-08-26T02:04:53.211Z,101459.53
2022-08-26T02:07:56.881Z,101454.16
2022-08-26T02:11:01.261Z,101454.16
2022-08-26T02:14:09.335Z,101452.31
2022-08-26T02:17:13.477Z,101448.78
2022-08-26T02:20:21.168Z,101450.69
2022-08-26T02:23:24.646Z,101448.84
2022-08-26T02:26:29.086Z,101441.78
2022-08-26T02:29:36.682Z,101446.28
2022-08-26T02:32:41.346Z,101447.25
2022-08-26T02:35:44.510Z,101445.50
2022-08-26T02:38:47.522Z,101447.25
2022-08-26T02:41:52.433Z,101448.94
2022-08-26T02:44:55.421Z,101447.25
2022-08-26T02:47:59.681Z,101433.84
2022-08-26T02:51:03.198Z,101436.50
2022-08-26T02:54:06.521Z,101441.00
2022-08-26T02:57:11.510Z,101430.38
2022-08-26T03:00:15.663Z,101439.25
2022-08-26T03:03:18.770Z,101442.03
2022-08-26T03:06:22.378Z,101437.53
2022-08-26T03:09:25.578Z,101440.22
2022-08-26T03:12:30.348Z,101436.66
2022-08-26T03:15:33.494Z,101437.59
2022-08-26T03:18:36.443Z,101437.69
2022-08-26T03:21:39.965Z,101433.22
2022-08-26T03:24:44.412Z,101426.09
2022-08-26T03:27:51.026Z,101435.03
2022-08-26T03:30:53.734Z,101429.66
2022-08-26T03:33:59.605Z,101431.47
2022-08-26T03:37:03.129Z,101421.72
2022-08-26T03:40:08.128Z,101420.84
2022-08-26T03:43:14.009Z,101425.28
2022-08-26T03:46:17.722Z,101417.28
2022-08-26T03:49:20.927Z,101428.00
2022-08-26T03:52:24.090Z,101427.16
2022-08-26T03:55:31.893Z,101428.97
2022-08-26T03:58:37.239Z,101428.09
2022-08-26T04:01:41.020Z,101419.19
2022-08-26T04:04:44.102Z,101414.69
2022-08-26T04:07:47.721Z,101420.94
2022-08-26T04:10:51.589Z,101412.13
2022-08-26T04:13:56.062Z,101414.69
2022-08-26T04:16:59.730Z,101407.53
2022-08-26T04:20:02.787Z,101411.16
2022-08-26T04:23:06.105Z,101407.53
2022-08-26T04:26:09.193Z,101398.72
2022-08-26T04:29:16.367Z,101393.34
2022-08-26T04:32:19.643Z,101399.66
2022-08-26T04:35:25.623Z,101396.09
2022-08-26T04:38:29.374Z,101395.25
2022-08-26T04:41:32.825Z,101400.63
2022-08-26T04:44:38.327Z,101403.28
2022-08-26T04:47:42.626Z,101398.78
2022-08-26T04:50:49.502Z,101403.28
2022-08-26T04:53:52.931Z,101405.00
2022-08-26T04:56:55.918Z,101400.63
2022-08-26T05:00:00.679Z,101405.97
2022-08-26T05:03:03.851Z,101399.75
2022-08-26T05:06:08.039Z,101402.41
2022-08-26T05:09:14.224Z,101397.06
2022-08-26T05:12:18.498Z,101392.63
2022-08-26T05:15:23.370Z,101401.56
2022-08-26T05:18:30.006Z,101407.88
2022-08-26T05:21:32.994Z,101407.88
2022-08-26T05:24:37.465Z,101409.69
2022-08-26T05:27:41.158Z,101417.72
2022-08-26T05:30:46.702Z,101418.59
2022-08-26T05:33:50.060Z,101415.03
2022-08-26T05:36:54.301Z,101419.53
2022-08-26T05:39:57.810Z,101415.03
2022-08-26T05:43:01.101Z,101414.16
2022-08-26T05:46:08.863Z,101423.00
2022-08-26T05:49:13.708Z,101415.91
2022-08-26T05:52:16.705Z,101415.91
2022-08-26T05:55:20.659Z,101417.72
2022-08-26T05:58:24.625Z,101422.22
2022-08-26T06:01:31.244Z,101422.22
2022-08-26T06:04:38.789Z,101423.09
2022-08-26T06:07:59.515Z,101427.56
2022-08-26T06:11:04.566Z,101418.66
2022-08-26T06:14:09.814Z,101424.91
2022-08-26T06:17:14.221Z,101420.41
2022-08-26T06:20:17.362Z,101419.53
2022-08-26T06:23:38.219Z,101415.91
2022-08-26T06:26:50.498Z,101418.59
2022-08-26T06:29:54.773Z,101415.91
2022-08-26T06:32:59.213Z,101420.41
2022-08-26T06:36:03.970Z,101416.84
2022-08-26T06:39:10.137Z,101415.03
2022-08-26T06:42:13.467Z,101411.50
2022-08-26T06:45:18.004Z,101414.16
2022-08-26T06:48:22.641Z,101414.16
2022-08-26T06:51:27.677Z,101415.03
2022-08-26T06:54:31.849Z,101418.59
2022-08-26T06:57:37.734Z,101414.94
2022-08-26T07:00:47.499Z,101415.81
2022-08-26T07:03:57.079Z,101411.34
2022-08-26T07:07:00.862Z,101412.13
2022-08-26T07:10:04.044Z,101403.97
2022-08-26T07:13:08.053Z,101411.94
2022-08-26T07:16:13.823Z,101410.03
2022-08-26T07:19:31.129Z,101401.03
2022-08-26T07:22:35.267Z,101396.47
2022-08-26T07:25:40.167Z,101393.78
2022-08-26T07:28:43.621Z,101392.84
2022-08-26T07:31:46.650Z,101387.38
2022-08-26T07:34:51.103Z,101385.56
2022-08-26T07:37:57.028Z,101383.75
2022-08-26T07:41:00.399Z,101381.94
2022-08-26T07:44:04.288Z,101381.78
2022-08-26T07:47:10.385Z,101374.56
2022-08-26T07:50:49.160Z,101377.19
2022-08-26T07:53:53.522Z,101383.31
2022-08-26T07:56:56.802Z,101377.00
2022-08-26T08:00:00.857Z,101378.75
2022-08-26T08:03:06.179Z,101372.41
2022-08-26T08:06:10.661Z,101374.16
2022-08-26T08:09:16.137Z,101377.69
2022-08-26T08:12:20.254Z,101374.94
2022-08-26T08:15:27.409Z,101367.66
2022-08-26T08:18:30.612Z,101372.06
2022-08-26T08:21:35.517Z,101369.31
2022-08-26T08:24:39.676Z,101369.19
2022-08-26T08:27:45.113Z,101364.66
2022-08-26T08:30:48.421Z,101358.34
2022-08-26T08:33:51.409Z,101359.91
2022-08-26T08:36:57.143Z,101351.75
2022-08-26T08:40:00.814Z,101354.34
2022-08-26T08:43:06.137Z,101352.44
2022-08-26T08:46:13.321Z,101347.84
2022-08-26T08:49:17.619Z,101347.66
2022-08-26T08:52:29.433Z,101341.16
2022-08-26T08:55:45.409Z,101335.69
2022-08-26T08:58:56.689Z,101339.09
2022-08-26T09:02:07.540Z,101333.53
2022-08-26T09:05:19.947Z,101335.16
2022-08-26T09:08:29.401Z,101322.63
2022-08-26T09:11:32.618Z,101319.84
2022-08-26T09:14:36.567Z,101322.41
2022-08-26T09:17:49.339Z,101323.13
2022-08-26T09:20:58.085Z,101318.41
2022-08-26T09:24:02.424Z,101319.09
2022-08-26T09:27:05.838Z,101323.41
2022-08-26T09:30:11.314Z,101317.09
2022-08-26T09:33:19.251Z,101322.47
2022-08-26T09:36:37.793Z,101314.44
2022-08-26T09:39:44.037Z,101316.06
2022-08-26T09:42:48.187Z,101318.66
2022-08-26T09:45:58.503Z,101320.34
2022-08-26T09:49:25.791Z,101307.53
2022-08-26T09:52:29.723Z,101308.31
2022-08-26T09:55:34.250Z,101306.38
2022-08-26T09:58:39.319Z,101301.63
2022-08-26T10:01:45.980Z,101294.25
2022-08-26T10:04:54.228Z,101289.53
2022-08-26T10:07:59.723Z,101291.28
2022-08-26T10:11:08.505Z,101286.03
2022-08-26T10:14:18.571Z,101280.72
2022-08-26T10:17:33.290Z,101271.06
2022-08-26T10:20:42.826Z,101265.75
2022-08-26T10:23:51.024Z,101275.56
2022-08-26T10:27:03.671Z,101261.38
2022-08-26T10:30:11.494Z,101249.66
2022-08-26T10:33:18.069Z,101243.44
2022-08-26T10:36:58.439Z,101245.16
2022-08-26T10:40:12.241Z,101232.59
2022-08-26T10:43:22.426Z,101230.69
2022-08-26T10:46:36.145Z,101220.72
2022-08-26T10:49:41.929Z,101222.44
2022-08-26T10:52:58.887Z,101221.47
2022-08-26T10:56:15.848Z,101217.84
2022-08-26T10:59:39.484Z,101206.13
2022-08-26T11:02:48.380Z,101201.53
2022-08-26T11:06:21.598Z,101186.19
2022-08-26T11:09:44.086Z,101180.63
2022-08-26T11:12:53.566Z,101175.25
2022-08-26T11:16:02.313Z,101175.34
2022-08-26T11:19:06.482Z,101162.78
2022-08-26T11:22:11.754Z,101164.50
2022-08-26T11:25:19.734Z,101158.16
2022-08-26T11:28:35.550Z,101148.28
2022-08-26T11:32:04.288Z,101148.19
2022-08-26T11:35:09.951Z,101149.06
2022-08-26T11:38:28.266Z,101136.69
2022-08-26T11:41:31.938Z,101120.69
2022-08-26T11:44:41.464Z,101118.00
2022-08-26T11:47:54.712Z,101102.75
2022-08-26T11:51:00.997Z,101095.53
2022-08-26T11:54:13.578Z,101079.34
2022-08-26T11:57:16.769Z,101087.41
2022-08-26T12:00:22.572Z,101094.47
2022-08-26T12:03:37.994Z,101099.78
2022-08-26T12:06:47.589Z,101095.25
2022-08-26T12:09:56.599Z,101096.13
2022-08-26T12:13:02.113Z,101089.03
2022-08-26T12:16:06.707Z,101086.44
2022-08-26T12:19:26.294Z,101091.03
2022-08-26T12:22:34.540Z,101083.84
2022-08-26T12:25:39.358Z,101090.28
2022-08-26T12:28:47.703Z,101093.72
2022-08-26T12:31:50.948Z,101065.16
2022-08-26T12:34:56.064Z,101048.31
2022-08-26T12:37:59.743Z,101048.31
2022-08-26T12:41:02.963Z,101060.75
2022-08-26T12:44:06.450Z,101074.16
2022-08-26T12:47:13.054Z,101075.03
2022-08-26T12:50:22.186Z,101074.16
2022-08-26T12:53:28.147Z,101085.78
2022-08-26T12:56:36.683Z,101087.47
2022-08-26T12:59:40.631Z,101084.81
2022-08-26T13:02:43.658Z,101079.44
2022-08-26T13:05:48.298Z,101084.03
2022-08-26T13:08:53.755Z,101087.72
2022-08-26T13:12:02.172Z,101083.19
2022-08-26T13:15:07.387Z,101088.56
2022-08-26T13:18:10.525Z,101096.63
2022-08-26T13:21:18.877Z,101103.41
2022-08-26T13:24:24.291Z,101125.00
2022-08-26T13:27:28.141Z,101135.38
2022-08-26T13:30:32.203Z,101147.66
2022-08-26T13:33:35.762Z,101151.66
2022-08-26T13:36:40.333Z,101135.09
2022-08-26T13:39:43.438Z,101133.66
2022-08-26T13:42:50.002Z,101135.78
2022-08-26T13:45:53.685Z,101133.38
2022-08-26T13:48:57.029Z,101145.16
2022-08-26T13:52:01.961Z,101142.47
2022-08-26T13:55:06.713Z,101136.34
2022-08-26T13:58:09.938Z,101129.25
2022-08-26T14:01:13.467Z,101131.16
2022-08-26T14:04:17.029Z,101136.75
2022-08-26T14:07:31.601Z,101129.63
2022-08-26T14:10:35.050Z,101127.06
2022-08-26T14:13:39.238Z,101133.47
2022-08-26T14:16:58.619Z,101136.03
2022-08-26T14:20:03.720Z,101130.03
2022-08-26T14:23:14.307Z,101139.03
2022-08-26T14:26:28.560Z,101131.00
2022-08-26T14:29:32.586Z,101132.91
2022-08-26T14:32:36.315Z,101138.34
2022-08-26T14:35:39.726Z,101136.72
2022-08-26T14:38:44.201Z,101137.69
2022-08-26T14:41:53.975Z,101126.97
2022-08-26T14:44:59.645Z,101114.69
2022-08-26T14:48:02.852Z,101117.38
2022-08-26T14:51:06.179Z,101114.69
2022-08-26T14:54:14.658Z,101109.34
2022-08-26T14:57:17.690Z,101111.44
2022-08-26T15:00:21.202Z,101100.69
2022-08-26T15:03:24.167Z,101094.47
2022-08-26T15:06:27.486Z,101084.59
2022-08-26T15:09:34.777Z,101091.03
2022-08-26T15:12:38.317Z,101099.16
2022-08-26T15:15:41.324Z,101104.72
2022-08-26T15:18:44.313Z,101106.53
2022-08-26T15:21:48.015Z,101104.88
2022-08-26T15:24:53.742Z,101094.25
2022-08-26T15:27:56.960Z,101096.06
2022-08-26T15:31:00.570Z,101114.84
2022-08-26T15:34:08.540Z,101139.91
2022-08-26T15:37:12.746Z,101149.69
2022-08-26T15:40:18.512Z,101133.63
2022-08-26T15:43:29.060Z,101123.75
2022-08-26T15:46:32.835Z,101136.41
2022-08-26T15:49:36.371Z,101147.97
2022-08-26T15:52:39.899Z,101132.84
2022-08-26T15:55:44.709Z,101132.84
2022-08-26T15:58:47.670Z,101137.44
2022-08-26T16:01:51.648Z,101128.53
2022-08-26T16:04:54.770Z,101124.97
2022-08-26T16:07:57.732Z,101124.13
2022-08-26T16:11:03.831Z,101115.22
2022-08-26T16:14:07.224Z,101103.81
2022-08-26T16:17:10.202Z,101092.13
2022-08-26T16:20:13.220Z,101087.66
2022-08-26T16:23:16.506Z,101086.88
2022-08-26T16:26:25.293Z,101085.13
2022-08-26T16:29:28.785Z,101086.00
2022-08-26T16:32:31.814Z,101099.31
2022-08-26T16:35:35.097Z,101092.25
2022-08-26T16:38:39.637Z,101090.50
2022-08-26T16:41:44.251Z,101103.91
2022-08-26T16:44:47.243Z,101117.31
2022-08-26T16:47:51.309Z,101115.50
2022-08-26T16:50:55.517Z,101111.84
2022-08-26T16:53:59.312Z,101101.13
2022-08-26T16:57:04.047Z,101107.34
2022-08-26T17:00:12.290Z,101118.06
2022-08-26T17:03:15.886Z,101121.53
2022-08-26T17:06:19.578Z,101128.63
2022-08-26T17:09:22.965Z,101119.59
2022-08-26T17:12:28.377Z,101111.56
2022-08-26T17:15:32.022Z,101110.63
2022-08-26T17:18:36.167Z,101119.44
2022-08-26T17:21:40.677Z,101123.94
2022-08-26T17:24:43.704Z,101112.34
2022-08-26T17:27:48.457Z,101094.53
2022-08-26T17:30:51.640Z,101084.69
2022-08-26T17:33:55.517Z,101082.84
2022-08-26T17:36:59.041Z,101078.34
2022-08-26T17:40:02.421Z,101069.44
2022-08-26T17:43:11.684Z,101063.31
2022-08-26T17:46:18.355Z,101058.94
2022-08-26T17:49:21.389Z,101056.25
2022-08-26T17:52:24.401Z,101066.00
2022-08-26T17:55:27.479Z,101051.66
2022-08-26T17:58:31.885Z,101060.63
2022-08-26T18:01:37.679Z,101062.38
2022-08-26T18:04:40.777Z,101057.00
2022-08-26T18:07:44.300Z,101062.38
2022-08-26T18:10:47.885Z,101068.59
2022-08-26T18:13:53.176Z,101072.22
2022-08-26T18:16:56.201Z,101070.41
2022-08-26T18:19:59.538Z,101073.09
2022-08-26T18:23:02.871Z,101074.03
2022-08-26T18:26:06.010Z,101064.28
2022-08-26T18:29:11.197Z,101064.28
2022-08-26T18:32:14.353Z,101064.28
2022-08-26T18:35:17.980Z,101065.16
2022-08-26T18:38:20.941Z,101079.41
2022-08-26T18:41:27.716Z,101079.41
2022-08-26T18:44:32.135Z,101075.00
2022-08-26T18:47:35.255Z,101089.28
2022-08-26T18:50:40.189Z,101090.22
2022-08-26T18:53:43.404Z,101083.13
2022-08-26T18:56:47.005Z,101081.53
2022-08-26T18:59:51.889Z,101077.09
2022-08-26T19:02:56.108Z,101066.38
2022-08-26T19:05:59.763Z,101047.72
2022-08-26T19:09:03.474Z,101055.75
2022-08-26T19:12:07.906Z,101056.63
2022-08-26T19:15:13.462Z,101052.97
2022-08-26T19:18:17.597Z,101055.66
2022-08-26T19:21:21.477Z,101064.66
2022-08-26T19:24:26.082Z,101059.31
2022-08-26T19:27:32.295Z,101070.88
2022-08-26T19:30:40.273Z,101077.97
2022-08-26T19:33:45.436Z,101090.50
2022-08-26T19:36:48.505Z,101086.13
2022-08-26T19:39:51.647Z,101087.81
2022-08-26T19:42:54.801Z,101075.41
2022-08-26T19:45:59.312Z,101076.34
2022-08-26T19:49:02.817Z,101067.41
2022-08-26T19:52:06.746Z,101073.66
2022-08-26T19:55:11.427Z,101073.66
2022-08-26T19:58:14.558Z,101083.44
2022-08-26T20:01:19.670Z,101086.94
2022-08-26T20:04:23.083Z,101083.44
2022-08-26T20:07:26.673Z,101097.69
2022-08-26T20:10:29.682Z,101092.31
2022-08-26T20:13:32.965Z,101089.56
2022-08-26T20:16:37.461Z,101087.72
2022-08-26T20:19:58.242Z,101084.19
2022-08-26T20:23:01.921Z,101086.00
2022-08-26T20:26:05.495Z,101093.19
2022-08-26T20:29:10.330Z,101095.75
2022-08-26T20:32:14.834Z,101099.41
2022-08-26T20:35:18.382Z,101103.03
2022-08-26T20:38:21.715Z,101103.03
2022-08-26T20:41:25.793Z,101112.06
2022-08-26T20:44:28.850Z,101127.25
2022-08-26T20:47:33.571Z,101123.81
2022-08-26T20:50:38.994Z,101116.75
2022-08-26T20:53:42.610Z,101123.81
2022-08-26T20:56:45.678Z,101128.31
2022-08-26T20:59:49.145Z,101126.50
2022-08-26T21:02:53.770Z,101127.47
2022-08-26T21:05:56.746Z,101125.63
2022-08-26T21:08:59.848Z,101128.31
2022-08-26T21:12:03.340Z,101127.47
2022-08-26T21:15:07.621Z,101127.47
2022-08-26T21:18:12.394Z,101142.56
2022-08-26T21:21:15.558Z,101139.91
2022-08-26T21:24:19.118Z,101132.72
2022-08-26T21:27:26.621Z,101131.84
2022-08-26T21:30:31.178Z,101132.63
2022-08-26T21:33:37.119Z,101135.31
2022-08-26T21:36:40.250Z,101146.03
2022-08-26T21:39:43.394Z,101155.03
2022-08-26T21:42:47.002Z,101160.47
2022-08-26T21:45:51.318Z,101160.56
2022-08-26T21:48:59.089Z,101155.31
2022-08-26T21:52:04.701Z,101149.97
2022-08-26T21:55:09.260Z,101150.03
2022-08-26T21:58:15.313Z,101139.50
2022-08-26T22:01:21.588Z,101133.38
2022-08-26T22:04:26.433Z,101133.38
2022-08-26T22:07:29.435Z,101116.41
2022-08-26T22:10:32.498Z,101116.53
2022-08-26T22:13:38.082Z,101113.84
2022-08-26T22:16:41.600Z,101112.97
2022-08-26T22:19:55.114Z,101111.06
2022-08-26T22:23:00.981Z,101106.56
2022-08-26T22:26:05.357Z,101094.97
2022-08-26T22:29:08.623Z,101093.16
2022-08-26T22:32:11.886Z,101092.19
2022-08-26T22:35:29.337Z,101090.50
2022-08-26T22:38:33.398Z,101100.34
2022-08-26T22:41:36.468Z,101088.75
2022-08-26T22:44:41.185Z,101088.75
2022-08-26T22:47:44.213Z,101077.09
2022-08-26T22:50:49.434Z,101063.69
2022-08-26T22:53:52.474Z,101062.72
2022-08-26T22:56:55.905Z,101054.69
2022-08-26T22:59:59.127Z,101051.16
2022-08-26T23:03:02.846Z,101028.75
2022-08-26T23:06:09.412Z,101038.69
2022-08-26T23:09:12.437Z,101044.94
2022-08-26T23:12:16.789Z,101044.06
2022-08-26T23:15:21.027Z,101040.50
2022-08-26T23:18:23.982Z,101042.25
2022-08-26T23:21:28.440Z,101045.88
2022-08-26T23:24:31.421Z,101040.72
2022-08-26T23:27:34.578Z,101041.56
2022-08-26T23:30:37.585Z,101051.44
2022-08-26T23:33:58.405Z,101046.09
2022-08-26T23:37:03.170Z,101039.75
2022-08-26T23:40:14.047Z,101032.56
2022-08-26T23:43:17.633Z,101033.44
2022-08-26T23:46:21.239Z,101044.16
2022-08-26T23:49:24.721Z,101031.59
2022-08-26T23:52:46.845Z,101027.22
2022-08-26T23:55:52.079Z,101033.44
2022-08-26T23:58:55.647Z,101038.81
